Portada
METAR-TAF:

METAR-TAF

Aeropuertos :

Aeropuerto Internacional de Pekín-Capital

Pekín, China

latitud: 39-56N, longitud: 116-17E, altitud: 55 m

Observación

El informe se hizo hace 39 minutos, a las 16:00 UTC
Viento 10 kt del norte-noreste
Temperatura -3°C
Humedad 33%
Presión 1030 hPa
Visibilidad 10 km o más
sin nubes por debajo de 1500 m y sin presencia de cumulonimbus.

METAR: ZBAA 111600Z 02005MPS CAVOK M03/M17 Q1030 NOSIG

Hora: 00:39 (16:39 UTC)

Pronóstico

El informe se hizo hace 7 horas y 19 minutos, a las 09:20 UTC
Pronóstico válido del 11 a las 12 UTC al 12 a las 12 UTC
Viento 8 kt del noroeste
Visibilidad 10 km o más
sin nubes por debajo de 1500 m y sin presencia de cumulonimbus.

TAF: ZBAA 110920Z 1112/1212 32004MPS CAVOK TX07/1207Z TNM08/21Z

Observaciones y pronósticos meteorológicos de más de 4000 aeropuertos (mensajes METAR y TAF).

Los puntos amarillos y rojos representan las estaciones disponibles.

Ponga el ratón en el punto deseado para ver el nombre de la estación.

Haga clic para ver las observaciones y los pronósticos meteorológicos.

Para cambiar el mapa : haga clic en los botones verdes con una cruz de color negro para hacer un zoom, en el botón verde con un guión para alejar o en las flechas verdes para mapas adyacentes.


METAR-TAF: